Bookmark and Share
Track history (hours):
 

Festivo

Last reported at 2014-Apr-22 10:33 UTC. Time now 2014-Apr-24 02:08 UTC.
Position N 36°03' W 005°06'.

Length 136 m; draft 3.5 m.

Type: Cargo ship. MMSI: 225410000.

NotesDate/timePositionNaut miles runAvg speedWind from/ knotsBaromVisibWave heightAir tempDewpointWater temp
2014-Apr-22 10:33N 36°03' W 005°06'1212.3
2014-Apr-22 09:33N 35°55' W 005°18'2 1.8
2014-Apr-22 08:32N 35°54' W 005°19'0 0.0
2014-Apr-22 07:32N 35°54' W 005°19'0 0.0
2014-Apr-22 06:32N 35°54' W 005°19'0 0.0
2014-Apr-22 05:32N 35°54' W 005°19'1 1.2
2014-Apr-22 04:34N 35°55' W 005°19'5 5.4
2014-Apr-22 03:34N 35°58' W 005°13'7 7.3
2014-Apr-22 02:34N 36°02' W 005°06'  
2014-Apr-15 07:31N 35°54' W 005°19'0 0.0
2014-Apr-15 06:31N 35°54' W 005°19'0 0.0
2014-Apr-15 05:31N 35°54' W 005°19'1 0.4
2014-Apr-15 03:34N 35°54' W 005°19'19191923.7
2014-Apr-15 02:34N 03°55' W 005°14'19261925.4
2014-Apr-15 01:34N 36°01' W 005°08'  
2014-Apr-12 16:33N 35°54' W 005°10'8 7.9
2014-Apr-12 15:33N 35°54' W 005°19'0 0.0
2014-Apr-12 14:33N 35°54' W 005°19'0 0.0
2014-Apr-12 13:33N 35°54' W 005°19'0 0.0
2014-Apr-12 12:33N 35°54' W 005°19'0 0.0
2014-Apr-12 11:33N 35°54' W 005°19'  

Dump ship's entire track history

sailing weather and tide predictions

Festivo — EAEQ — position and weather